Time;durP1;ratioP1;P1;durP2;ratioP2;P2;SDS_P1;SDS_P2;PMS_P1;PMS_P2;Temp;Humidity;BMP_temperature;BMP_pressure;BME280_temperature;BME280_humidity;BME280_pressure;Samples;Min_cycle;Max_cycle;Signal;HPM_P1;HPM_P2
2021/03/06 00:00:17;;;;;;;;;;;2.70;40.70;;;;;;5026355;28;20021;-72
2021/03/06 00:02:43;;;;;;;5.77;1.23;;;2.70;40.80;;;;;;5026913;28;19908;-71
2021/03/06 00:05:09;;;;;;;;;;;2.70;41.10;;;;;;5027895;28;20051;-69
2021/03/06 00:07:36;;;;;;;4.28;1.10;;;2.70;40.20;;;;;;5026752;28;19972;-72
2021/03/06 00:10:07;;;;;;;6.75;1.42;;;2.60;40.30;;;;;;5025935;28;20045;-71
2021/03/06 00:12:33;;;;;;;13.63;1.45;;;2.70;40.60;;;;;;5027279;28;20498;-71
2021/03/06 00:14:59;;;;;;;;;;;2.70;40.60;;;;;;5026183;28;20095;-72
2021/03/06 00:17:24;;;;;;;4.13;1.08;;;2.50;41.70;;;;;;5026328;28;19996;-71
2021/03/06 00:19:50;;;;;;;3.78;1.17;;;2.50;42.00;;;;;;5027012;28;20029;-71
2021/03/06 00:22:15;;;;;;;;;;;2.40;41.80;;;;;;5027380;28;20623;-72
2021/03/06 00:24:41;;;;;;;4.30;1.20;;;2.60;40.70;;;;;;5025634;28;19924;-69
2021/03/06 00:27:07;;;;;;;;;;;2.60;40.60;;;;;;5027233;28;20512;-71
2021/03/06 00:29:32;;;;;;;4.85;1.20;;;2.40;41.90;;;;;;5027015;28;19920;-70
2021/03/06 00:31:58;;;;;;;;;;;2.40;42.00;;;;;;5026671;28;20502;-72
2021/03/06 00:34:23;;;;;;;2.92;1.10;;;2.50;41.10;;;;;;5025637;28;19931;-70
2021/03/06 00:36:49;;;;;;;;;;;2.60;41.30;;;;;;5025841;28;20033;-72
2021/03/06 00:39:14;;;;;;;4.28;1.10;;;2.50;40.80;;;;;;5025647;28;19920;-72
2021/03/06 00:41:40;;;;;;;;;;;2.40;42.10;;;;;;5025625;28;20099;-70
2021/03/06 00:44:06;;;;;;;3.65;0.88;;;2.40;42.60;;;;;;5026678;28;20028;-71
2021/03/06 00:46:31;;;;;;;;;;;2.50;41.70;;;;;;5025291;28;20490;-72
2021/03/06 00:48:57;;;;;;;4.28;1.40;;;2.50;41.30;;;;;;5026557;28;20250;-72
2021/03/06 00:51:23;;;;;;;;;;;2.50;41.70;;;;;;5026879;28;20120;-72
2021/03/06 00:53:49;;;;;;;4.78;1.55;;;2.40;42.20;;;;;;5025355;28;19909;-71
2021/03/06 00:56:14;;;;;;;;;;;2.40;42.70;;;;;;5026690;28;20136;-72
2021/03/06 00:58:40;;;;;;;6.20;2.28;;;2.40;42.30;;;;;;5026694;28;19936;-71
2021/03/06 01:01:06;;;;;;;;;;;2.40;42.30;;;;;;5025053;28;20107;-72
2021/03/06 01:03:32;;;;;;;4.88;1.23;;;2.40;42.30;;;;;;5026394;28;20345;-71
2021/03/06 01:05:58;;;;;;;;;;;2.40;43.00;;;;;;5026858;28;20120;-71
2021/03/06 01:08:24;;;;;;;5.43;1.52;;;2.30;42.70;;;;;;5026154;28;19909;-72
2021/03/06 01:10:50;;;;;;;;;;;2.20;43.00;;;;;;5026269;28;20040;-72
2021/03/06 01:13:17;;;;;;;2.95;1.25;;;2.20;43.30;;;;;;5025917;28;19913;-71
2021/03/06 01:15:43;;;;;;;5.03;1.40;;;2.20;43.50;;;;;;5024693;28;20064;-71
2021/03/06 01:18:09;;;;;;;;;;;2.20;43.30;;;;;;5025281;28;20437;-72
2021/03/06 01:20:35;;;;;;;8.80;1.85;;;2.10;43.50;;;;;;5026390;28;19909;-72
2021/03/06 01:23:01;;;;;;;6.15;1.35;;;2.10;44.40;;;;;;5026078;28;20028;-72
2021/03/06 01:25:27;;;;;;;4.15;1.23;;;2.10;44.80;;;;;;5024497;28;20080;-72
2021/03/06 01:27:52;;;;;;;;;;;2.10;45.20;;;;;;5026525;28;20025;-71
2021/03/06 01:30:19;;;;;;;6.50;1.42;;;2.00;45.00;;;;;;5025425;28;19920;-72
2021/03/06 01:32:45;;;;;;;7.40;2.13;;;2.10;45.10;;;;;;5029848;28;20556;-72
2021/03/06 01:35:11;;;;;;;;;;;2.10;45.70;;;;;;5030755;28;20065;-72
2021/03/06 01:37:38;;;;;;;4.95;1.42;;;2.10;46.20;;;;;;5030486;28;19915;-72
2021/03/06 01:40:11;;;;;;;3.90;1.40;;;2.00;46.30;;;;;;5030188;28;20068;-72
2021/03/06 01:42:38;;;;;;;5.32;1.30;;;2.00;46.60;;;;;;5028670;28;20128;-72
2021/03/06 01:45:05;;;;;;;4.38;1.20;;;2.00;46.80;;;;;;5030019;28;20049;-72
2021/03/06 01:47:31;;;;;;;8.15;1.30;;;2.00;47.20;;;;;;5028148;28;20037;-71
2021/03/06 01:49:57;;;;;;;;;;;2.00;47.30;;;;;;5030436;28;20560;-71
2021/03/06 01:52:23;;;;;;;4.20;1.08;;;2.00;47.90;;;;;;5028157;28;19908;-72
2021/03/06 01:54:50;;;;;;;4.85;1.40;;;1.90;48.30;;;;;;5028540;28;20041;-72
2021/03/06 01:57:16;;;;;;;6.50;1.60;;;1.90;48.70;;;;;;5029192;28;20395;-71
2021/03/06 01:59:41;;;;;;;;;;;1.90;49.20;;;;;;5030284;28;20084;-71
2021/03/06 02:02:07;;;;;;;5.85;1.77;;;1.90;48.90;;;;;;5029105;28;19913;-72
2021/03/06 02:04:33;;;;;;;;;;;1.80;49.10;;;;;;5028888;28;20029;-71
2021/03/06 02:07:01;;;;;;;3.10;1.15;;;1.80;48.80;;;;;;5029308;28;19909;-72
2021/03/06 02:09:27;;;;;;;5.70;1.60;;;1.80;48.90;;;;;;5029536;28;20564;-72
2021/03/06 02:12:14;;;;;;;4.03;1.50;;;1.90;48.60;;;;;;5029599;28;20033;-72
2021/03/06 02:15:01;;;;;;;6.15;2.17;;;1.90;47.60;;;;;;5028069;28;20039;-72
2021/03/06 02:17:48;;;;;;;4.63;1.75;;;1.90;47.50;;;;;;5029244;28;20044;-72
2021/03/06 02:20:41;;;;;;;7.10;1.40;;;1.90;47.50;;;;;;5029043;28;20485;-72
2021/03/06 02:23:43;;;;;;;6.63;1.73;;;1.80;47.90;;;;;;5029146;28;20052;-72
2021/03/06 02:26:42;;;;;;;5.40;1.70;;;1.80;47.80;;;;;;5029399;28;20033;-72
2021/03/06 02:29:37;;;;;;;5.82;2.30;;;1.80;47.00;;;;;;5027499;28;20112;-73
2021/03/06 02:32:45;;;;;;;8.30;3.10;;;1.70;47.90;;;;;;5025028;28;20045;-72
2021/03/06 02:35:15;;;;;;;9.23;2.58;;;1.70;48.20;;;;;;5009997;28;20248;-72
2021/03/06 02:38:00;;;;;;;12.85;3.22;;;1.60;48.20;;;;;;5028091;28;20112;-72
2021/03/06 02:40:27;;;;;;;7.20;2.35;;;1.50;48.90;;;;;;5028874;28;20049;-72
2021/03/06 02:42:55;;;;;;;7.18;1.90;;;1.50;48.90;;;;;;5028699;28;20350;-71
2021/03/06 02:45:22;;;;;;;8.30;1.85;;;1.50;48.90;;;;;;5028102;28;20060;-72
2021/03/06 02:47:48;;;;;;;5.97;1.83;;;1.40;48.70;;;;;;5029083;28;20250;-72
2021/03/06 02:50:14;;;;;;;;;;;1.40;48.50;;;;;;5028722;28;20744;-72
2021/03/06 02:52:40;;;;;;;3.80;1.20;;;1.40;48.00;;;;;;5028940;28;20393;-71
2021/03/06 02:55:08;;;;;;;5.50;1.10;;;1.40;46.50;;;;;;5028522;28;20520;-72
2021/03/06 02:58:10;;;;;;;4.20;1.55;;;1.40;47.10;;;;;;5028740;28;20030;-71
2021/03/06 03:00:47;;;;;;;6.13;2.10;;;1.30;47.10;;;;;;5028061;28;20494;-72
2021/03/06 03:03:13;;;;;;;;;;;1.20;47.30;;;;;;5027811;28;20032;-71
2021/03/06 03:05:47;;;;;;;5.85;1.98;;;1.10;47.90;;;;;;5028357;28;19905;-72
2021/03/06 03:08:39;;;;;;;7.20;2.78;;;1.10;48.20;;;;;;5028574;28;20048;-71
2021/03/06 03:11:09;;;;;;;5.85;1.55;;;1.00;48.30;;;;;;5027223;28;20066;-71
2021/03/06 03:13:42;;;;;;;2.67;1.17;;;0.90;49.00;;;;;;5026958;28;20025;-71
2021/03/06 03:16:11;;;;;;;4.50;0.95;;;0.80;49.80;;;;;;5027679;28;20537;-72
2021/03/06 03:19:07;;;;;;;2.65;1.10;;;0.70;50.60;;;;;;5026690;28;20041;-71
2021/03/06 03:21:36;;;;;;;3.70;1.08;;;0.60;50.40;;;;;;5028096;28;20030;-72
2021/03/06 03:24:10;;;;;;;5.45;1.00;;;0.60;50.80;;;;;;5028388;28;20042;-70
2021/03/06 03:26:39;;;;;;;4.68;1.02;;;0.50;50.90;;;;;;5027079;28;20124;-72
2021/03/06 03:29:07;;;;;;;2.25;0.70;;;0.40;51.00;;;;;;5027860;28;20043;-72
2021/03/06 03:31:35;;;;;;;3.28;0.80;;;0.40;51.10;;;;;;5027664;28;20033;-72
2021/03/06 03:34:04;;;;;;;4.38;1.20;;;0.30;51.40;;;;;;5028301;28;20292;-71
2021/03/06 03:36:31;;;;;;;4.60;1.15;;;0.20;51.80;;;;;;5027524;28;20033;-72
2021/03/06 03:38:57;;;;;;;8.05;2.15;;;0.10;52.70;;;;;;5026607;28;20025;-71
2021/03/06 03:41:24;;;;;;;6.32;1.83;;;0.10;53.90;;;;;;5026716;28;20022;-72
2021/03/06 03:43:50;;;;;;;4.00;1.60;;;0.00;54.40;;;;;;5026123;28;20072;-72
2021/03/06 03:46:16;;;;;;;;;;;-0.10;55.30;;;;;;5027766;28;20050;-71
2021/03/06 03:48:44;;;;;;;6.57;1.30;;;-0.20;56.10;;;;;;5026495;28;19905;-71
2021/03/06 03:51:11;;;;;;;3.17;1.15;;;-0.20;56.40;;;;;;5027697;28;20048;-71
2021/03/06 03:53:37;;;;;;;5.20;1.40;;;-0.30;56.50;;;;;;5027007;28;20071;-72
2021/03/06 03:56:03;;;;;;;6.18;1.60;;;-0.30;56.70;;;;;;5027173;28;20033;-73
2021/03/06 03:58:29;;;;;;;;;;;-0.40;57.20;;;;;;5027779;28;20036;-72
2021/03/06 04:00:59;;;;;;;4.75;1.33;;;-0.40;58.00;;;;;;5025620;28;19905;-70
2021/03/06 04:03:26;;;;;;;8.55;2.03;;;-0.50;58.40;;;;;;5026128;28;20052;-71
2021/03/06 04:05:52;;;;;;;3.83;1.48;;;-0.60;58.80;;;;;;5027583;28;20071;-71
2021/03/06 04:08:18;;;;;;;;;;;-0.70;58.80;;;;;;5026263;28;20022;-72
2021/03/06 04:10:43;;;;;;;6.28;1.10;;;-0.70;58.40;;;;;;5027127;28;20104;-71
2021/03/06 04:13:09;;;;;;;;;;;-0.80;58.20;;;;;;5026101;28;20025;-71
2021/03/06 04:15:36;;;;;;;8.43;1.67;;;-0.80;58.40;;;;;;5025924;28;19909;-71
2021/03/06 04:18:05;;;;;;;6.13;1.65;;;-0.80;58.30;;;;;;5027443;28;20030;-70
2021/03/06 04:20:31;;;;;;;10.52;1.40;;;-0.80;58.00;;;;;;5026922;28;20336;-71
2021/03/06 04:22:57;;;;;;;;;;;-0.80;57.10;;;;;;5027701;28;20502;-71
2021/03/06 04:25:23;;;;;;;3.30;1.33;;;-0.80;55.50;;;;;;5027234;28;19951;-71
2021/03/06 04:27:48;;;;;;;;;;;-0.70;55.00;;;;;;5027320;28;20049;-71
2021/03/06 04:30:14;;;;;;;7.47;1.73;;;-0.60;54.70;;;;;;5025125;28;19967;-71
2021/03/06 04:32:40;;;;;;;;;;;-0.60;54.30;;;;;;5027298;28;20021;-71
2021/03/06 04:35:07;;;;;;;4.80;1.50;;;-0.60;54.90;;;;;;5027175;28;19958;-72
2021/03/06 04:37:33;;;;;;;3.38;1.45;;;-0.60;54.70;;;;;;5025087;28;20029;-72
2021/03/06 04:39:59;;;;;;;;;;;-0.60;54.50;;;;;;5025943;28;20036;-72
2021/03/06 04:42:24;;;;;;;7.57;1.60;;;-0.60;55.20;;;;;;5025309;28;19909;-69
2021/03/06 04:44:50;;;;;;;;;;;-0.70;55.80;;;;;;5026860;28;20075;-72
2021/03/06 04:47:17;;;;;;;10.95;2.53;;;-0.80;56.80;;;;;;5026305;28;19913;-71
2021/03/06 04:49:43;;;;;;;9.32;3.75;;;-0.90;57.50;;;;;;5026858;28;20025;-71
2021/03/06 04:52:09;;;;;;;;;;;-1.00;58.50;;;;;;5025823;28;20079;-72
2021/03/06 04:54:34;;;;;;;36.83;15.38;;;-1.10;58.90;;;;;;5026627;28;20000;-72
2021/03/06 04:57:00;;;;;;;;;;;-1.20;59.00;;;;;;5025596;28;20509;-70
2021/03/06 04:59:25;;;;;;;20.08;8.63;;;-1.20;59.60;;;;;;5026124;28;19913;-70
2021/03/06 05:01:51;;;;;;;;;;;-1.30;59.80;;;;;;5027035;28;20450;-70
2021/03/06 05:04:16;;;;;;;11.82;3.97;;;-1.30;59.50;;;;;;5025020;28;20062;-71
2021/03/06 05:06:44;;;;;;;;;;;-1.30;59.60;;;;;;5025064;28;20033;-71
2021/03/06 05:09:10;;;;;;;8.20;4.22;;;-1.20;59.20;;;;;;5026615;28;19912;-71
2021/03/06 05:11:36;;;;;;;;;;;-1.20;59.60;;;;;;5025025;28;20464;-72
2021/03/06 05:14:01;;;;;;;12.18;5.65;;;-1.30;60.30;;;;;;5024903;28;19909;-71
2021/03/06 05:16:27;;;;;;;;;;;-1.30;60.10;;;;;;5026901;28;20033;-71
2021/03/06 05:18:52;;;;;;;19.15;6.85;;;-1.30;60.40;;;;;;5026302;28;19911;-72
2021/03/06 05:21:18;;;;;;;;;;;-1.30;61.40;;;;;;5024967;28;20029;-72
2021/03/06 05:23:43;;;;;;;19.60;6.80;;;-1.30;62.70;;;;;;5025518;28;20376;-72
2021/03/06 05:26:09;;;;;;;;;;;-1.30;62.20;;;;;;5026535;28;20029;-69
2021/03/06 05:28:35;;;;;;;27.63;8.57;;;-1.30;62.50;;;;;;5023937;28;20004;-69
2021/03/06 05:31:00;;;;;;;;;;;-1.30;62.40;;;;;;5026339;28;20568;-70
2021/03/06 05:33:26;;;;;;;14.43;5.50;;;-1.30;62.50;;;;;;5024818;28;19959;-72
2021/03/06 05:35:51;;;;;;;;;;;-1.20;62.50;;;;;;5026596;28;20091;-71
2021/03/06 05:38:17;;;;;;;27.48;9.63;;;-1.20;62.40;;;;;;5024014;28;19915;-71
2021/03/06 05:40:43;;;;;;;;;;;-1.20;62.10;;;;;;5025985;28;20401;-70
2021/03/06 05:43:10;;;;;;;26.30;10.63;;;-1.20;62.30;;;;;;5025734;28;20328;-69
2021/03/06 05:45:36;;;;;;;25.90;9.93;;;-1.10;62.40;;;;;;5025831;28;20363;-71
2021/03/06 05:48:02;;;;;;;;;;;-1.10;62.40;;;;;;5026024;28;20140;-70
2021/03/06 05:50:28;;;;;;;7.27;3.20;;;-1.10;61.60;;;;;;5024662;28;20613;-71
2021/03/06 05:52:58;;;;;;;7.43;3.35;;;-1.00;61.60;;;;;;5025770;28;20034;-73
2021/03/06 05:55:27;;;;;;;21.65;9.85;;;-0.90;61.70;;;;;;5024466;28;20112;-70
2021/03/06 05:57:55;;;;;;;18.15;9.07;;;-0.70;61.60;;;;;;5024344;28;20128;-70
2021/03/06 06:00:21;;;;;;;21.33;10.85;;;-0.40;61.20;;;;;;5025815;28;20083;-71
2021/03/06 06:02:48;;;;;;;20.30;9.15;;;-0.20;61.00;;;;;;5023954;28;20037;-69
2021/03/06 06:05:16;;;;;;;20.42;8.15;;;0.10;60.50;;;;;;5025785;28;20026;-70
2021/03/06 06:07:43;;;;;;;20.02;7.90;;;0.40;60.00;;;;;;5025505;28;20481;-71
2021/03/06 06:10:10;;;;;;;18.67;6.95;;;0.60;59.40;;;;;;5025840;28;20549;-71
2021/03/06 06:12:35;;;;;;;15.48;6.85;;;0.90;58.60;;;;;;5025580;28;20033;-71
2021/03/06 06:15:01;;;;;;;;;;;1.10;58.00;;;;;;5025900;28;20039;-69
2021/03/06 06:17:27;;;;;;;12.90;6.05;;;1.40;57.00;;;;;;5027228;28;19959;-68
2021/03/06 06:19:53;;;;;;;;;;;1.70;56.90;;;;;;5028554;28;20075;-68
2021/03/06 06:22:27;;;;;;;11.85;6.30;;;2.00;55.30;;;;;;5031038;28;19911;-69
2021/03/06 06:24:54;;;;;;;13.10;5.65;;;2.30;55.00;;;;;;5036858;28;20032;-71
2021/03/06 06:27:30;;;;;;;11.82;5.88;;;2.70;53.20;;;;;;5029755;28;20519;-71
2021/03/06 06:29:58;;;;;;;14.82;7.82;;;3.10;51.40;;;;;;5029069;28;20044;-71
2021/03/06 06:32:26;;;;;;;19.05;10.80;;;3.60;50.40;;;;;;5027841;28;20251;-72
2021/03/06 06:35:09;;;;;;;19.25;8.77;;;4.10;48.30;;;;;;5028653;28;20037;-70
2021/03/06 06:37:35;;;;;;;18.70;9.07;;;4.70;47.20;;;;;;5028852;28;20033;-71
2021/03/06 06:40:14;;;;;;;;;;;5.20;45.70;;;;;;5028425;28;20116;-71
2021/03/06 06:42:41;;;;;;;15.50;8.23;;;5.90;43.50;;;;;;5028113;28;20368;-71
2021/03/06 06:45:08;;;;;;;16.70;9.55;;;6.60;42.10;;;;;;5027612;28;20128;-71
2021/03/06 06:47:42;;;;;;;12.80;7.03;;;7.20;40.40;;;;;;5027159;28;20406;-71
2021/03/06 06:50:10;;;;;;;12.07;4.85;;;7.70;38.10;;;;;;5028444;28;20025;-72
2021/03/06 06:52:37;;;;;;;10.35;4.28;;;8.10;36.80;;;;;;5027427;28;20041;-71
2021/03/06 06:55:05;;;;;;;8.05;4.35;;;8.50;36.60;;;;;;5028775;28;20354;-71
2021/03/06 06:57:30;;;;;;;10.10;4.82;;;9.20;35.20;;;;;;5026465;28;20021;-71
2021/03/06 06:59:57;;;;;;;;;;;9.80;33.80;;;;;;5029158;28;20040;-71
2021/03/06 07:02:24;;;;;;;10.10;3.00;;;10.20;30.60;;;;;;5028449;28;20397;-69
2021/03/06 07:04:59;;;;;;;4.65;2.13;;;10.40;30.00;;;;;;5031922;28;20018;-69
2021/03/06 07:07:26;;;;;;;7.90;2.53;;;10.80;30.40;;;;;;5031160;28;20132;-69
2021/03/06 07:10:07;;;;;;;4.70;1.98;;;11.10;29.20;;;;;;5027301;28;20061;-69
2021/03/06 07:12:35;;;;;;;5.30;1.83;;;11.60;28.80;;;;;;5026400;28;20111;-70
2021/03/06 07:15:01;;;;;;;8.00;2.83;;;11.90;27.60;;;;;;5027929;28;20025;-72
2021/03/06 07:17:48;;;;;;;5.47;2.10;;;12.00;27.50;;;;;;5028274;28;20090;-72
2021/03/06 07:20:33;;;;;;;;;;;12.20;26.40;;;;;;5028180;28;20056;-72
2021/03/06 07:23:12;;;;;;;4.88;2.13;;;12.20;26.10;;;;;;5028051;28;19909;-71
2021/03/06 07:25:38;;;;;;;6.93;2.20;;;12.60;25.90;;;;;;5026990;28;20029;-72
2021/03/06 07:28:04;;;;;;;;;;;13.00;25.60;;;;;;5027735;28;20064;-71
2021/03/06 07:30:29;;;;;;;5.68;2.15;;;13.40;25.00;;;;;;5030221;28;19974;-71
2021/03/06 07:32:57;;;;;;;4.53;1.80;;;13.70;24.50;;;;;;5026600;28;20033;-72
2021/03/06 07:35:24;;;;;;;5.53;2.10;;;13.90;24.70;;;;;;5026305;28;20025;-71
2021/03/06 07:37:57;;;;;;;4.82;2.33;;;14.00;25.00;;;;;;5027981;28;20038;-73
2021/03/06 07:40:29;;;;;;;4.70;2.20;;;14.10;25.20;;;;;;5026654;28;20025;-72
2021/03/06 07:42:59;;;;;;;5.15;2.00;;;14.60;25.10;;;;;;5026880;28;20034;-72
2021/03/06 07:45:29;;;;;;;4.93;1.75;;;15.00;24.20;;;;;;5025856;28;20053;-71
2021/03/06 07:48:13;;;;;;;5.35;2.13;;;15.10;23.40;;;;;;5027416;28;20084;-72
2021/03/06 07:50:45;;;;;;;10.73;2.58;;;14.90;23.40;;;;;;5027397;28;20029;-71
2021/03/06 07:53:13;;;;;;;5.53;1.95;;;14.90;23.30;;;;;;5027889;28;20045;-72
2021/03/06 07:55:39;;;;;;;5.50;1.88;;;14.50;23.90;;;;;;5027592;28;20086;-72
2021/03/06 07:58:12;;;;;;;6.35;1.92;;;14.20;24.10;;;;;;5025491;28;20037;-72
2021/03/06 08:00:51;;;;;;;5.47;2.05;;;14.50;23.60;;;;;;5026161;28;20112;-71
2021/03/06 08:03:26;;;;;;;5.60;1.80;;;14.10;24.10;;;;;;5027526;28;20029;-72
2021/03/06 08:05:54;;;;;;;6.93;2.25;;;14.10;24.10;;;;;;5027620;28;20120;-72
2021/03/06 08:08:32;;;;;;;3.72;1.70;;;14.20;24.90;;;;;;5027284;28;20022;-72
2021/03/06 08:11:12;;;;;;;2.97;1.42;;;14.10;24.10;;;;;;5025674;28;20037;-72
2021/03/06 08:13:38;;;;;;;3.63;1.73;;;14.20;23.10;;;;;;5026779;28;20025;-71
2021/03/06 08:16:27;;;;;;;4.78;1.52;;;14.00;22.70;;;;;;5027017;28;20022;-72
2021/03/06 08:18:58;;;;;;;4.80;1.75;;;14.10;22.50;;;;;;5026922;28;20501;-72
2021/03/06 08:21:41;;;;;;;3.78;1.63;;;14.70;22.80;;;;;;5025878;28;20029;-72
2021/03/06 08:24:15;;;;;;;4.93;2.10;;;14.90;22.60;;;;;;5027102;28;20025;-72
2021/03/06 08:27:07;;;;;;;7.40;1.70;;;15.40;22.10;;;;;;5026045;28;20105;-73
2021/03/06 08:29:42;;;;;;;3.50;1.55;;;15.50;21.60;;;;;;5025615;28;20041;-71
2021/03/06 08:32:07;;;;;;;3.90;1.50;;;15.40;20.30;;;;;;5026971;28;20109;-72
2021/03/06 08:34:37;;;;;;;4.20;1.75;;;15.40;20.10;;;;;;5026735;28;20448;-71
2021/03/06 08:39:45;;;;;;;4.38;1.88;;;14.80;21.80;;;;;;5028790;28;20052;-72
2021/03/06 08:42:12;;;;;;;7.15;3.28;;;14.70;21.80;;;;;;5025149;28;20073;-72
2021/03/06 08:44:38;;;;;;;12.63;7.60;;;13.80;20.90;;;;;;5026616;28;20053;-71
2021/03/06 08:47:06;;;;;;;4.85;2.47;;;12.80;21.40;;;;;;5026385;28;20033;-73
2021/03/06 08:49:32;;;;;;;2.85;1.23;;;12.80;21.90;;;;;;5032090;28;20079;-71
2021/03/06 08:51:58;;;;;;;6.78;1.58;;;12.30;21.40;;;;;;5030112;28;20072;-71
2021/03/06 08:54:25;;;;;;;5.82;2.47;;;11.90;21.50;;;;;;5026579;28;20572;-71
2021/03/06 08:57:28;;;;;;;4.22;1.90;;;11.70;22.20;;;;;;5024529;28;20041;-71
2021/03/06 08:59:55;;;;;;;2.42;1.10;;;11.80;22.00;;;;;;5041903;28;20064;-72
2021/03/06 09:02:31;;;;;;;3.78;1.58;;;11.50;22.20;;;;;;5041706;28;20528;-71
2021/03/06 09:05:07;;;;;;;;;;;12.00;21.80;;;;;;5026832;28;20029;-72
2021/03/06 09:07:35;;;;;;;3.67;1.55;;;12.00;21.60;;;;;;5041702;28;19905;-70
2021/03/06 09:10:19;;;;;;;5.20;2.33;;;12.10;21.80;;;;;;5026397;28;20029;-69
2021/03/06 09:12:46;;;;;;;3.38;1.25;;;12.30;22.00;;;;;;5025291;28;20299;-69
2021/03/06 09:15:22;;;;;;;3.47;1.60;;;12.80;21.30;;;;;;5031980;28;20056;-70
2021/03/06 09:17:48;;;;;;;4.70;1.40;;;13.00;21.30;;;;;;5045709;28;20029;-73
2021/03/06 09:20:14;;;;;;;3.42;1.60;;;13.20;21.30;;;;;;5036283;28;20471;-72
2021/03/06 09:22:45;;;;;;;9.05;1.77;;;13.70;19.80;;;;;;5024772;28;20119;-73
2021/03/06 09:25:12;;;;;;;3.88;1.10;;;13.70;21.40;;;;;;5024807;28;20071;-72
2021/03/06 09:27:48;;;;;;;3.35;1.17;;;14.50;19.70;;;;;;5025599;28;20033;-72
2021/03/06 09:30:26;;;;;;;4.07;1.50;;;14.50;19.90;;;;;;5025706;28;20045;-72
2021/03/06 09:32:52;;;;;;;3.63;1.17;;;13.90;20.10;;;;;;5024650;28;20031;-72
2021/03/06 09:35:20;;;;;;;4.60;1.92;;;13.70;19.70;;;;;;5035932;28;20037;-72
2021/03/06 09:37:46;;;;;;;2.92;0.98;;;13.90;21.00;;;;;;5027702;28;20040;-72
2021/03/06 09:40:19;;;;;;;3.08;1.13;;;13.80;21.10;;;;;;5025899;28;20061;-72
2021/03/06 09:42:47;;;;;;;2.90;1.10;;;13.50;21.50;;;;;;5023951;28;20457;-71
2021/03/06 09:45:13;;;;;;;3.88;1.40;;;12.90;22.20;;;;;;5025933;28;20061;-72
2021/03/06 09:47:39;;;;;;;9.45;2.05;;;11.60;20.40;;;;;;5026084;28;20021;-71
2021/03/06 09:50:05;;;;;;;;;;;11.30;22.20;;;;;;5025017;28;20076;-72
2021/03/06 09:52:34;;;;;;;3.35;1.25;;;11.70;22.90;;;;;;5025934;28;20351;-72
2021/03/06 09:55:01;;;;;;;3.33;1.40;;;12.30;22.70;;;;;;5029677;28;20045;-73
2021/03/06 09:57:27;;;;;;;5.78;1.80;;;12.10;22.60;;;;;;5027957;28;20037;-70
2021/03/06 09:59:53;;;;;;;7.18;2.70;;;12.30;23.00;;;;;;5027849;28;20124;-71
2021/03/06 10:02:23;;;;;;;;;;;12.10;23.10;;;;;;5027693;28;20523;-71
2021/03/06 10:04:50;;;;;;;18.10;9.63;;;11.90;22.80;;;;;;5027477;28;19940;-70
2021/03/06 10:07:20;;;;;;;15.10;4.88;;;11.60;22.60;;;;;;5029877;28;20042;-71
2021/03/06 10:09:47;;;;;;;11.75;4.75;;;11.20;23.00;;;;;;5029262;28;20069;-71
2021/03/06 10:12:16;;;;;;;7.30;3.20;;;10.70;23.20;;;;;;5029491;28;20105;-71
2021/03/06 10:14:46;;;;;;;7.97;2.15;;;10.90;22.70;;;;;;5029125;28;20119;-71
2021/03/06 10:17:13;;;;;;;3.50;1.52;;;11.50;22.40;;;;;;5029750;28;20037;-71
2021/03/06 10:19:49;;;;;;;5.43;1.38;;;11.90;21.20;;;;;;5029486;28;20079;-71
2021/03/06 10:22:18;;;;;;;5.07;2.20;;;12.20;22.00;;;;;;5029437;28;20033;-72
2021/03/06 10:25:04;;;;;;;4.03;2.03;;;13.00;21.90;;;;;;5027738;28;20116;-71
2021/03/06 10:27:41;;;;;;;4.90;1.80;;;13.80;21.10;;;;;;5029181;28;20022;-71
2021/03/06 10:30:10;;;;;;;2.63;1.00;;;14.10;19.30;;;;;;5028740;28;20406;-70
2021/03/06 10:32:44;;;;;;;4.63;2.05;;;13.20;19.60;;;;;;5029265;28;20041;-71
2021/03/06 10:35:30;;;;;;;6.30;3.22;;;11.90;21.20;;;;;;5028733;28;20095;-70
2021/03/06 10:37:56;;;;;;;6.60;1.92;;;11.40;21.80;;;;;;5029264;28;20045;-71
2021/03/06 10:40:42;;;;;;;;;;;10.70;21.90;;;;;;5028853;28;20052;-70
2021/03/06 10:43:08;;;;;;;3.30;1.60;;;10.00;23.00;;;;;;5027436;28;19964;-71
2021/03/06 10:45:33;;;;;;;;;;;9.50;23.60;;;;;;5028125;28;20041;-72
2021/03/06 10:48:02;;;;;;;6.80;2.60;;;9.20;24.30;;;;;;5028638;28;19905;-72
2021/03/06 10:50:39;;;;;;;6.78;2.35;;;9.20;24.50;;;;;;5028174;28;20029;-71
2021/03/06 10:53:20;;;;;;;4.90;1.50;;;9.20;25.00;;;;;;5028272;28;20029;-72
2021/03/06 10:55:47;;;;;;;4.18;1.63;;;9.50;24.80;;;;;;5028348;28;20037;-70
2021/03/06 10:58:14;;;;;;;4.13;1.40;;;9.70;23.90;;;;;;5028494;28;20033;-69
2021/03/06 11:00:41;;;;;;;4.57;1.90;;;9.90;22.90;;;;;;5028158;28;20505;-68
2021/03/06 11:03:09;;;;;;;4.38;1.52;;;9.40;23.60;;;;;;5028377;28;20029;-70
2021/03/06 11:05:35;;;;;;;6.35;1.80;;;9.20;22.90;;;;;;5028441;28;20025;-69
2021/03/06 11:08:21;;;;;;;3.03;1.40;;;8.90;24.20;;;;;;5028378;28;20021;-68
2021/03/06 11:10:51;;;;;;;4.90;2.03;;;8.50;24.40;;;;;;5025994;28;20041;-70
2021/03/06 11:13:18;;;;;;;3.70;1.63;;;8.40;24.90;;;;;;5026542;28;20815;-70
2021/03/06 11:15:49;;;;;;;5.43;1.77;;;8.30;24.90;;;;;;5027182;28;20087;-71
2021/03/06 11:18:14;;;;;;;6.43;3.10;;;8.40;24.70;;;;;;5027023;28;20565;-71
2021/03/06 11:20:40;;;;;;;;;;;8.30;25.70;;;;;;5026946;28;20171;-71
2021/03/06 11:23:07;;;;;;;7.80;4.32;;;8.30;26.60;;;;;;5027946;28;20523;-70
2021/03/06 11:25:33;;;;;;;7.38;2.97;;;8.20;26.70;;;;;;5026502;28;20034;-72
2021/03/06 11:28:05;;;;;;;;;;;8.40;27.40;;;;;;5028807;28;20022;-71
2021/03/06 11:30:42;;;;;;;3.83;1.52;;;8.90;26.70;;;;;;5028143;28;19920;-71
2021/03/06 11:33:10;;;;;;;5.72;2.03;;;9.50;25.40;;;;;;5026624;28;20406;-68
2021/03/06 11:35:36;;;;;;;4.53;2.03;;;9.70;26.20;;;;;;5027822;28;20029;-69
2021/03/06 11:38:03;;;;;;;4.75;2.20;;;9.90;24.90;;;;;;5028284;28;20030;-69
2021/03/06 11:40:31;;;;;;;6.50;1.60;;;9.60;25.40;;;;;;5027750;28;20018;-69
2021/03/06 11:42:58;;;;;;;3.35;1.70;;;9.60;25.10;;;;;;5026301;28;20033;-71
2021/03/06 11:45:23;;;;;;;4.72;2.03;;;9.50;24.90;;;;;;5027918;28;20064;-71
2021/03/06 11:47:53;;;;;;;;;;;9.30;25.30;;;;;;5028420;28;20021;-71
2021/03/06 11:50:21;;;;;;;5.45;1.75;;;9.00;25.60;;;;;;5027190;28;19916;-71
2021/03/06 11:52:48;;;;;;;4.18;1.30;;;8.70;25.80;;;;;;5027686;28;20356;-71
2021/03/06 11:55:14;;;;;;;7.70;2.90;;;8.50;25.60;;;;;;5027203;28;20112;-72
2021/03/06 11:57:41;;;;;;;8.27;3.53;;;8.40;26.90;;;;;;5026365;28;20418;-72
2021/03/06 12:00:09;;;;;;;7.47;3.50;;;8.30;27.10;;;;;;5027191;28;20041;-71
2021/03/06 12:02:35;;;;;;;21.00;9.82;;;8.10;27.90;;;;;;5026631;28;20025;-71
2021/03/06 12:05:00;;;;;;;;;;;8.00;27.90;;;;;;5026111;28;20386;-72
2021/03/06 12:07:26;;;;;;;11.48;5.07;;;8.00;28.40;;;;;;5027572;28;19913;-71
2021/03/06 12:09:52;;;;;;;;;;;8.00;28.30;;;;;;5026151;28;20033;-71
2021/03/06 12:12:17;;;;;;;8.13;3.15;;;8.30;26.40;;;;;;5025856;28;19990;-71
2021/03/06 12:14:43;;;;;;;7.88;2.67;;;8.20;27.30;;;;;;5024938;28;20522;-72
2021/03/06 12:17:08;;;;;;;;;;;8.30;27.60;;;;;;5027761;28;20037;-71
2021/03/06 12:19:34;;;;;;;5.53;2.08;;;8.40;27.70;;;;;;5027131;28;19912;-71
2021/03/06 12:22:00;;;;;;;;;;;8.40;27.20;;;;;;5026375;28;20099;-70
2021/03/06 12:24:25;;;;;;;9.82;2.80;;;8.40;27.10;;;;;;5026413;28;19905;-71
2021/03/06 12:26:54;;;;;;;;;;;8.40;27.40;;;;;;5025917;28;20029;-71
2021/03/06 12:29:20;;;;;;;4.53;1.85;;;8.50;26.70;;;;;;5026793;28;19905;-72
2021/03/06 12:31:46;;;;;;;;;;;8.50;27.50;;;;;;5026239;28;20136;-72
2021/03/06 12:34:12;;;;;;;5.43;2.53;;;8.60;28.20;;;;;;5026997;28;20035;-71
2021/03/06 12:36:37;;;;;;;;;;;8.70;27.70;;;;;;5025746;28;20036;-71
2021/03/06 12:39:05;;;;;;;4.13;1.55;;;8.90;27.10;;;;;;5026444;28;19909;-71
2021/03/06 12:41:30;;;;;;;3.78;1.70;;;8.80;26.90;;;;;;5026494;28;20032;-71
2021/03/06 12:43:56;;;;;;;;;;;9.00;25.90;;;;;;5027292;28;20112;-71
2021/03/06 12:46:25;;;;;;;6.20;2.10;;;9.20;25.30;;;;;;5026716;28;20039;-70
2021/03/06 12:48:51;;;;;;;8.05;3.13;;;8.90;25.30;;;;;;5026678;28;20501;-71
2021/03/06 12:51:18;;;;;;;5.72;2.22;;;8.90;26.60;;;;;;5024933;28;20041;-70
2021/03/06 12:53:44;;;;;;;5.15;2.30;;;8.70;26.20;;;;;;5026351;28;20104;-71
2021/03/06 12:56:09;;;;;;;;;;;8.40;26.30;;;;;;5026654;28;20382;-70
2021/03/06 12:58:35;;;;;;;5.88;2.63;;;8.20;26.10;;;;;;5024976;28;20373;-72
2021/03/06 13:01:01;;;;;;;7.57;2.60;;;7.90;27.10;;;;;;5026035;28;20029;-71
2021/03/06 13:03:26;;;;;;;;;;;7.80;27.80;;;;;;5025748;28;20049;-71
2021/03/06 13:05:52;;;;;;;5.80;2.45;;;7.60;27.60;;;;;;5026234;28;19909;-71
2021/03/06 13:08:17;;;;;;;;;;;7.60;27.60;;;;;;5026188;28;20030;-71
2021/03/06 13:10:43;;;;;;;7.00;1.63;;;7.50;27.50;;;;;;5024800;28;19959;-70
2021/03/06 13:13:09;;;;;;;3.60;1.30;;;7.80;27.70;;;;;;5024714;28;20438;-71
2021/03/06 13:15:34;;;;;;;;;;;8.00;27.20;;;;;;5026863;28;20033;-72
2021/03/06 13:18:00;;;;;;;6.05;1.70;;;8.30;27.00;;;;;;5026156;28;20381;-71
2021/03/06 13:20:26;;;;;;;;;;;8.50;26.60;;;;;;5026667;28;20033;-71
2021/03/06 13:22:52;;;;;;;6.25;1.40;;;8.70;26.40;;;;;;5025829;28;19916;-72